createdAt,value
2023-01-29T02:06:49.867Z,100357.20
2023-01-29T02:09:36.121Z,100359.19
2023-01-29T02:12:20.852Z,100363.21
2023-01-29T02:15:05.334Z,100363.20
2023-01-29T02:17:53.895Z,100363.25
2023-01-29T02:20:30.026Z,100364.36
2023-01-29T02:23:35.485Z,100365.49
2023-01-29T02:26:21.062Z,100365.04
2023-01-29T02:29:27.142Z,100364.79
2023-01-29T02:32:22.537Z,100363.93
2023-01-29T02:35:30.419Z,100361.55
2023-01-29T02:38:26.141Z,100360.67
2023-01-29T02:41:22.556Z,100366.41
2023-01-29T02:44:15.605Z,100373.92
2023-01-29T02:47:30.887Z,100367.55
2023-01-29T02:50:30.848Z,100362.83
2023-01-29T02:53:24.773Z,100357.44
2023-01-29T02:56:35.793Z,100363.36
2023-01-29T02:59:18.956Z,100363.10
2023-01-29T03:02:18.707Z,100367.21
2023-01-29T03:04:57.403Z,100361.38
2023-01-29T03:07:59.271Z,100354.94
2023-01-29T03:10:54.254Z,100353.09
2023-01-29T03:14:03.776Z,100351.39
2023-01-29T03:17:18.190Z,100353.32
2023-01-29T03:20:09.939Z,100357.41
2023-01-29T03:22:44.825Z,100356.67
2023-01-29T03:25:32.897Z,100361.20
2023-01-29T03:28:20.766Z,100358.05
2023-01-29T03:31:13.086Z,100360.13
2023-01-29T03:34:24.949Z,100356.67
2023-01-29T03:37:14.050Z,100353.83
2023-01-29T03:39:42.351Z,100356.48
2023-01-29T03:42:14.623Z,100354.04
2023-01-29T03:45:02.137Z,100355.02
2023-01-29T03:47:54.680Z,100359.56
2023-01-29T03:50:38.832Z,100356.91
2023-01-29T03:53:17.549Z,100358.45
2023-01-29T03:55:59.970Z,100357.67
2023-01-29T03:58:48.533Z,100358.04
2023-01-29T04:01:21.053Z,100357.70
2023-01-29T04:03:54.464Z,100359.08
2023-01-29T04:06:24.489Z,100358.76
2023-01-29T04:09:23.745Z,100360.19
2023-01-29T04:12:09.359Z,100353.53
2023-01-29T04:14:39.450Z,100348.89
2023-01-29T04:17:11.722Z,100345.44
2023-01-29T04:19:48.188Z,100349.73
2023-01-29T04:22:22.097Z,100351.70
2023-01-29T04:24:50.476Z,100346.77
2023-01-29T04:27:35.347Z,100347.20
2023-01-29T04:30:18.977Z,100352.07
2023-01-29T04:33:04.883Z,100352.31
2023-01-29T04:35:53.424Z,100352.54
2023-01-29T04:38:32.758Z,100352.81
2023-01-29T04:41:20.630Z,100353.06
2023-01-29T04:44:31.474Z,100354.00
2023-01-29T04:47:24.796Z,100351.07
2023-01-29T04:50:13.891Z,100358.70
2023-01-29T04:52:59.480Z,100357.29
2023-01-29T04:55:40.052Z,100356.16
2023-01-29T04:58:28.598Z,100351.76
2023-01-29T05:00:57.282Z,100359.80
2023-01-29T05:03:26.592Z,100359.11
2023-01-29T05:05:55.852Z,100360.70
2023-01-29T05:08:25.188Z,100361.05
2023-01-29T05:10:54.590Z,100361.21
2023-01-29T05:13:22.762Z,100363.20
2023-01-29T05:16:02.976Z,100361.94
2023-01-29T05:18:31.503Z,100366.71
2023-01-29T05:21:04.471Z,100368.51
2023-01-29T05:23:32.666Z,100369.64
2023-01-29T05:26:01.051Z,100379.88
2023-01-29T05:28:30.445Z,100374.56
2023-01-29T05:30:58.931Z,100367.33
2023-01-29T05:33:28.892Z,100363.71
2023-01-29T05:35:59.379Z,100369.46
2023-01-29T05:38:28.273Z,100375.81
2023-01-29T05:40:59.421Z,100371.86
2023-01-29T05:43:28.109Z,100376.57
2023-01-29T05:46:00.880Z,100379.20
2023-01-29T05:48:30.077Z,100378.64
2023-01-29T05:51:05.164Z,100373.89
2023-01-29T05:53:34.865Z,100371.81
2023-01-29T05:56:03.927Z,100370.52
2023-01-29T05:58:35.534Z,100368.71
2023-01-29T06:01:14.437Z,100364.42
2023-01-29T06:03:42.881Z,100368.59
2023-01-29T06:06:13.006Z,100372.52
2023-01-29T06:08:41.483Z,100373.48
2023-01-29T10:10:18.642Z,100301.83
2023-01-29T10:13:17.538Z,100295.35
2023-01-29T10:16:09.670Z,100288.56
2023-01-29T10:19:04.882Z,100285.54
2023-01-29T10:21:49.036Z,100282.60
2023-01-29T10:24:46.598Z,100278.31
2023-01-29T10:27:26.547Z,100272.39
2023-01-29T10:30:47.635Z,100269.29
2023-01-29T10:33:49.616Z,100259.23
2023-01-29T10:36:34.186Z,100255.95
2023-01-29T10:39:15.365Z,100251.56
2023-01-29T10:41:53.747Z,100252.36
2023-01-29T10:45:27.183Z,100251.68
2023-01-29T18:30:53.809Z,100156.27
2023-01-29T18:33:23.568Z,100155.09
2023-01-29T18:35:51.111Z,100155.90
2023-01-29T18:38:18.279Z,100157.33
2023-01-29T18:40:45.124Z,100159.06
2023-01-29T18:43:15.757Z,100158.56
2023-01-29T18:45:42.821Z,100154.41
2023-01-29T18:48:10.460Z,100155.30
2023-01-29T18:50:38.440Z,100153.22
2023-01-29T18:53:05.682Z,100155.23
2023-01-29T18:55:32.630Z,100155.94
2023-01-29T18:58:26.190Z,100159.71
2023-01-29T19:00:48.379Z,100163.09
2023-01-29T19:03:15.486Z,100163.49
2023-01-29T19:05:44.783Z,100161.10
2023-01-29T19:08:12.861Z,100157.20
2023-01-29T19:10:40.226Z,100154.14
2023-01-29T19:13:08.080Z,100152.28
2023-01-29T19:15:36.458Z,100148.10
2023-01-29T19:18:14.554Z,100150.30
2023-01-29T19:20:42.166Z,100149.11
2023-01-29T19:23:12.543Z,100146.20
2023-01-29T19:25:39.942Z,100134.42
2023-01-29T19:28:07.460Z,100131.25
2023-01-29T19:30:34.768Z,100133.54
2023-01-29T19:33:05.345Z,100127.06
2023-01-29T19:35:33.119Z,100122.52
2023-01-29T19:38:00.785Z,100124.48
2023-01-29T19:40:29.969Z,100123.11
2023-01-29T19:42:58.049Z,100125.25
2023-01-29T19:45:37.203Z,100123.64
2023-01-29T19:48:19.649Z,100119.48
2023-01-29T19:51:12.429Z,100117.66
2023-01-29T19:54:03.650Z,100121.45
2023-01-29T19:56:33.878Z,100127.71
2023-01-29T19:59:00.818Z,100128.46
2023-01-29T20:01:29.089Z,100125.46
2023-01-29T20:03:57.124Z,100121.88
2023-01-29T20:06:25.851Z,100123.41
2023-01-29T20:08:53.105Z,100119.73
2023-01-29T20:11:21.282Z,100121.38
2023-01-29T20:13:50.170Z,100123.97
2023-01-29T20:16:17.995Z,100130.79
2023-01-29T20:18:45.907Z,100130.96
2023-01-29T20:21:14.801Z,100130.39
2023-01-29T20:23:43.782Z,100131.77
2023-01-29T20:26:13.745Z,100131.36
2023-01-29T20:28:41.361Z,100134.60
2023-01-29T20:31:11.499Z,100129.56
2023-01-29T20:33:39.604Z,100129.60
2023-01-29T20:36:09.674Z,100128.52
2023-01-29T20:38:37.759Z,100129.77
2023-01-29T20:41:15.646Z,100126.73
2023-01-29T20:43:43.518Z,100125.68
2023-01-29T20:46:11.108Z,100124.23
2023-01-29T20:48:52.772Z,100124.42
2023-01-29T20:51:20.839Z,100121.63
2023-01-29T20:53:48.096Z,100121.10
2023-01-29T20:56:15.964Z,100118.20
2023-01-29T20:58:44.360Z,100121.85
2023-01-29T21:01:13.534Z,100122.95
2023-01-29T21:03:41.006Z,100121.35
2023-01-29T21:06:11.228Z,100118.50
2023-01-29T21:08:39.512Z,100114.88
2023-01-29T21:11:07.885Z,100119.13
2023-01-29T21:13:35.329Z,100118.70
2023-01-29T21:16:03.020Z,100112.48
2023-01-29T21:18:31.746Z,100107.10
2023-01-29T21:20:58.629Z,100102.08
2023-01-29T21:23:25.776Z,100106.99
2023-01-29T21:25:53.231Z,100106.52
2023-01-29T21:28:20.391Z,100100.72
2023-01-29T21:30:47.549Z,100103.52
2023-01-29T21:33:14.687Z,100106.61
2023-01-29T21:35:44.241Z,100103.98
2023-01-29T21:38:13.694Z,100100.42
2023-01-29T21:40:40.965Z,100105.38
2023-01-29T21:43:11.606Z,100100.41
2023-01-29T21:45:40.997Z,100101.92
